createdAt,value
2019-04-07T00:00:28.574Z,-459.81
2019-04-07T00:01:29.049Z,-461.64
2019-04-07T00:02:29.254Z,-459.61
2019-04-07T00:03:29.635Z,-462.68
2019-04-07T00:04:30.617Z,-457.83
2019-04-07T00:05:30.318Z,-459.19
2019-04-07T00:06:30.727Z,-459.84
2019-04-07T00:07:31.080Z,-459.53
2019-04-07T00:08:31.533Z,-458.75
2019-04-07T00:09:32.061Z,-456.45
2019-04-07T00:10:32.132Z,-460.28
2019-04-07T00:11:32.524Z,-461.21
2019-04-07T00:12:32.864Z,-456.50
2019-04-07T00:13:33.689Z,-461.97
2019-04-07T00:14:33.614Z,-462.25
2019-04-07T00:15:34.468Z,-459.14
2019-04-07T00:16:34.443Z,-459.38
2019-04-07T00:17:34.669Z,-435.14
2019-04-07T00:18:35.036Z,-434.64
2019-04-07T00:19:35.391Z,-433.00
2019-04-07T00:20:36.310Z,-432.67
2019-04-07T00:21:36.427Z,-431.24
2019-04-07T00:22:36.789Z,-435.41
2019-04-07T00:23:36.841Z,-435.56
2019-04-07T00:24:37.252Z,-433.58
2019-04-07T00:25:37.526Z,-433.82
2019-04-07T00:26:37.903Z,-429.10
2019-04-07T00:27:38.230Z,-432.66
2019-04-07T00:28:38.626Z,-435.25
2019-04-07T00:29:39.499Z,-432.63
2019-04-07T00:30:39.909Z,-434.97
2019-04-07T00:31:39.841Z,-434.18
2019-04-07T00:32:40.073Z,-432.83
2019-04-07T00:33:40.407Z,-434.44
2019-04-07T00:34:41.457Z,-434.91
2019-04-07T00:35:41.135Z,-433.19
2019-04-07T00:36:41.975Z,-436.22
2019-04-07T00:37:41.879Z,-435.04
2019-04-07T00:38:42.258Z,-434.91
2019-04-07T00:39:42.594Z,-433.46
2019-04-07T00:40:42.994Z,-435.22
2019-04-07T00:41:43.397Z,-433.38
2019-04-07T00:42:43.686Z,-434.70
2019-04-07T00:43:44.570Z,-432.46
2019-04-07T00:44:45.477Z,-435.45
2019-04-07T00:45:44.784Z,-430.16
2019-04-07T00:46:45.148Z,-428.47
2019-04-07T00:47:46.101Z,-429.94
2019-04-07T00:48:45.889Z,-432.77
2019-04-07T00:49:46.573Z,-430.34
2019-04-07T00:50:46.987Z,-433.95
2019-04-07T00:51:47.465Z,-429.17
2019-04-07T00:52:47.315Z,-432.75
2019-04-07T00:53:47.681Z,-433.05
2019-04-07T00:54:48.032Z,-432.49
2019-04-07T00:55:48.493Z,-431.87
2019-04-07T00:56:49.074Z,-434.04
2019-04-07T00:57:49.189Z,-435.72
2019-04-07T00:58:49.959Z,-433.89
2019-04-07T00:59:50.557Z,-433.87
2019-04-07T01:00:50.510Z,-434.83
2019-04-07T01:01:50.536Z,-435.27
2019-04-07T01:02:50.910Z,-435.50
2019-04-07T01:03:51.276Z,-434.65
2019-04-07T01:04:51.820Z,-435.43
2019-04-07T01:05:52.177Z,-433.49
2019-04-07T01:06:52.686Z,-434.80
2019-04-07T01:07:52.701Z,-434.24
2019-04-07T01:08:53.654Z,-432.91
2019-04-07T01:09:53.418Z,-434.07
2019-04-07T01:10:53.755Z,-434.86
2019-04-07T01:11:54.116Z,-434.37
2019-04-07T01:12:54.485Z,-433.73
2019-04-07T01:13:55.472Z,-433.54
2019-04-07T01:14:55.395Z,-433.43
2019-04-07T01:15:56.058Z,-434.63
2019-04-07T01:16:56.177Z,-433.90
2019-04-07T01:17:56.280Z,-436.06
2019-04-07T01:18:56.948Z,-433.38
2019-04-07T01:19:57.043Z,-434.88
2019-04-07T01:20:57.379Z,-434.48
2019-04-07T01:21:57.758Z,-437.25
2019-04-07T01:22:58.199Z,-433.30
2019-04-07T01:23:59.048Z,-434.40
2019-04-07T01:24:59.349Z,-433.58
2019-04-07T01:25:59.177Z,-435.72
2019-04-07T01:27:00.168Z,-435.44
2019-04-07T01:27:59.919Z,-435.74
2019-04-07T01:29:00.288Z,-436.39
2019-04-07T01:30:00.769Z,-437.40
2019-04-07T01:31:01.126Z,-435.19
2019-04-07T01:32:01.385Z,-435.76
2019-04-07T01:33:02.187Z,-437.02
2019-04-07T01:34:02.153Z,-434.97
2019-04-07T01:35:02.520Z,-435.10
2019-04-07T01:36:02.834Z,-437.38
2019-04-07T01:37:03.525Z,-433.50
2019-04-07T01:38:03.570Z,-435.53
2019-04-07T01:39:04.067Z,-435.23
2019-04-07T01:40:04.500Z,-436.81
2019-04-07T01:41:04.788Z,-434.72
2019-04-07T01:42:05.075Z,-435.83
2019-04-07T01:43:05.375Z,-434.08
2019-04-07T01:44:06.014Z,-433.21
2019-04-07T01:45:06.139Z,-436.73
2019-04-07T01:46:06.448Z,-435.54
2019-04-07T01:47:06.878Z,-435.11
2019-04-07T01:48:07.228Z,-435.57
2019-04-07T01:49:09.343Z,-436.10
2019-04-07T01:50:07.898Z,-438.32
2019-04-07T01:51:08.273Z,-435.47
2019-04-07T01:52:08.607Z,-437.28
2019-04-07T01:53:09.001Z,-433.96
2019-04-07T01:54:10.108Z,-437.13
2019-04-07T01:55:10.133Z,-434.76
2019-04-07T01:56:10.765Z,-437.49
2019-04-07T01:57:10.408Z,-436.48
2019-04-07T01:58:10.833Z,-435.37
2019-04-07T01:59:11.961Z,-434.60
2019-04-07T02:00:11.504Z,-435.51
2019-04-07T02:01:12.038Z,-435.02
2019-04-07T02:02:12.532Z,-436.04
2019-04-07T02:03:12.593Z,-435.72
2019-04-07T02:04:13.067Z,-435.72
2019-04-07T02:05:13.439Z,-433.40
2019-04-07T02:06:13.679Z,-432.34
2019-04-07T02:07:14.027Z,-437.11
2019-04-07T02:08:14.538Z,-434.78
2019-04-07T02:09:14.754Z,-436.69
2019-04-07T02:10:15.186Z,-437.34
2019-04-07T02:11:15.488Z,-435.32
2019-04-07T02:12:15.945Z,-436.41
2019-04-07T02:13:16.480Z,-434.65
2019-04-07T02:14:16.552Z,-435.36
2019-04-07T02:15:17.397Z,-436.70
2019-04-07T02:16:17.273Z,-436.66
2019-04-07T02:17:17.615Z,-434.76
2019-04-07T02:18:18.000Z,-436.93
2019-04-07T02:19:19.014Z,-436.16
2019-04-07T02:20:18.990Z,-434.63
2019-04-07T02:21:19.660Z,-433.53
2019-04-07T02:22:20.075Z,-433.21
2019-04-07T02:23:19.788Z,-434.44
2019-04-07T02:24:20.282Z,-435.19
2019-04-07T02:25:20.708Z,-435.43
2019-04-07T02:26:21.472Z,-435.20
2019-04-07T02:27:21.200Z,-435.58
2019-04-07T02:28:21.845Z,-436.26
2019-04-07T02:29:21.981Z,-435.59
2019-04-07T02:30:22.297Z,-436.06
2019-04-07T02:31:23.472Z,-437.19
2019-04-07T02:32:23.006Z,-435.12
2019-04-07T02:33:24.260Z,-435.32
2019-04-07T02:34:23.745Z,-435.72
2019-04-07T02:35:24.622Z,-434.58
2019-04-07T02:36:27.446Z,-435.58
2019-04-07T02:37:26.609Z,-436.06
2019-04-07T02:38:25.406Z,-435.58
2019-04-07T02:39:25.557Z,-435.51
2019-04-07T02:40:26.743Z,-434.11
2019-04-07T02:41:27.417Z,-433.49
2019-04-07T02:42:26.695Z,-433.92
2019-04-07T02:43:27.415Z,-431.68
2019-04-07T02:44:27.393Z,-430.52
2019-04-07T02:45:28.287Z,-429.07
2019-04-07T02:46:28.053Z,-429.59
2019-04-07T02:47:28.392Z,-431.02
2019-04-07T02:48:28.777Z,-428.58
2019-04-07T02:49:29.174Z,-429.11
2019-04-07T02:50:30.184Z,-428.70
2019-04-07T02:51:29.899Z,-427.53
2019-04-07T02:52:30.497Z,-427.47
2019-04-07T02:53:30.780Z,-426.31
2019-04-07T02:54:30.976Z,-424.52
2019-04-07T02:55:31.292Z,-425.88
2019-04-07T02:56:32.492Z,-429.42
2019-04-07T02:57:32.054Z,-426.57
2019-04-07T02:58:32.698Z,-426.58
2019-04-07T02:59:33.457Z,-430.27
2019-04-07T03:00:33.168Z,-450.60
2019-04-07T03:01:33.519Z,-449.13
2019-04-07T03:02:34.598Z,-445.69
2019-04-07T03:03:34.366Z,-449.00
2019-04-07T03:04:34.576Z,-449.40
2019-04-07T03:05:34.892Z,-449.14
2019-04-07T03:06:42.701Z,-454.41
2019-04-07T03:07:36.620Z,-453.26
2019-04-07T03:08:35.981Z,-454.72
2019-04-07T03:09:36.549Z,-460.20
2019-04-07T03:10:36.722Z,-457.13
2019-04-07T03:11:37.328Z,-457.81
2019-04-07T03:12:37.658Z,-454.35
2019-04-07T03:13:38.128Z,-458.56
2019-04-07T03:14:39.149Z,-455.75
2019-04-07T03:15:38.803Z,-456.15
2019-04-07T03:16:39.461Z,-459.55
2019-04-07T03:17:39.240Z,-457.69
2019-04-07T03:18:39.709Z,-459.98
2019-04-07T03:19:39.979Z,-457.44
2019-04-07T03:20:40.345Z,-458.42
2019-04-07T03:21:40.666Z,-458.58
2019-04-07T03:22:41.876Z,-431.19
2019-04-07T03:23:41.577Z,-432.76
2019-04-07T03:24:42.306Z,-432.23
2019-04-07T03:25:42.264Z,-432.72
2019-04-07T03:26:42.659Z,-433.09
2019-04-07T03:27:42.827Z,-434.15
2019-04-07T03:28:43.854Z,-433.07
2019-04-07T03:29:43.582Z,-435.87
2019-04-07T03:30:45.076Z,-437.07
2019-04-07T03:31:45.869Z,-433.96
2019-04-07T03:32:45.820Z,-433.87
2019-04-07T03:33:45.985Z,-434.53
2019-04-07T03:34:46.643Z,-435.58
2019-04-07T03:35:47.409Z,-433.29
2019-04-07T03:37:12.850Z,-432.95
2019-04-07T03:37:48.368Z,-435.81
2019-04-07T03:38:46.777Z,-435.00
2019-04-07T03:39:47.188Z,-436.39
2019-04-07T03:40:48.140Z,-436.29
2019-04-07T03:41:47.890Z,-434.38
2019-04-07T03:42:48.258Z,-435.88
2019-04-07T03:43:49.439Z,-434.03
2019-04-07T03:44:49.126Z,-433.99
2019-04-07T03:45:49.874Z,-433.70
2019-04-07T03:46:49.801Z,-432.63
2019-04-07T03:47:50.430Z,-436.50
2019-04-07T03:48:50.873Z,-432.90
2019-04-07T03:49:50.933Z,-434.51
2019-04-07T03:50:51.145Z,-433.52
2019-04-07T03:51:51.632Z,-435.75
2019-04-07T03:52:51.891Z,-432.46
2019-04-07T03:53:52.255Z,-433.44
2019-04-07T03:54:52.754Z,-436.78
2019-04-07T03:55:53.426Z,-433.38
2019-04-07T03:56:53.353Z,-434.09
2019-04-07T03:57:54.798Z,-433.03
2019-04-07T03:58:54.091Z,-436.57
2019-04-07T03:59:55.442Z,-434.27
2019-04-07T04:00:55.115Z,-435.45
2019-04-07T04:01:55.156Z,-434.34
2019-04-07T04:02:55.534Z,-434.04
2019-04-07T04:03:56.646Z,-434.50
2019-04-07T04:04:56.281Z,-433.57
2019-04-07T04:05:57.215Z,-435.16
2019-04-07T04:06:56.983Z,-434.24
2019-04-07T04:07:57.432Z,-434.53
2019-04-07T04:08:58.542Z,-434.86
2019-04-07T04:09:58.271Z,-432.29
2019-04-07T04:10:58.367Z,-431.87
2019-04-07T04:11:58.752Z,-434.17
2019-04-07T04:12:59.127Z,-434.44
2019-04-07T04:13:59.476Z,-431.82
2019-04-07T04:15:00.158Z,-432.66
2019-04-07T04:16:00.870Z,-434.35
2019-04-07T04:17:00.525Z,-433.66
2019-04-07T04:18:01.135Z,-435.16
2019-04-07T04:19:02.366Z,-434.87
2019-04-07T04:20:01.745Z,-433.71
2019-04-07T04:21:01.979Z,-435.92
2019-04-07T04:22:02.346Z,-435.77
2019-04-07T04:23:02.700Z,-435.16
2019-04-07T04:24:04.067Z,-432.22
2019-04-07T04:25:03.486Z,-434.25
2019-04-07T04:26:04.342Z,-434.13
2019-04-07T04:27:04.558Z,-434.61
2019-04-07T04:28:04.947Z,-436.39
2019-04-07T04:29:05.634Z,-437.30
2019-04-07T04:30:05.267Z,-434.69
2019-04-07T04:31:06.625Z,-433.62
2019-04-07T04:32:06.015Z,-432.50
2019-04-07T04:33:06.451Z,-433.82
2019-04-07T04:34:06.753Z,-433.89
2019-04-07T04:35:07.093Z,-434.08
2019-04-07T04:36:08.094Z,-434.22
2019-04-07T04:37:08.044Z,-434.53
2019-04-07T04:38:08.213Z,-436.22
2019-04-07T04:39:08.504Z,-433.24
2019-04-07T04:40:09.311Z,-432.27
2019-04-07T04:41:10.052Z,-433.94
2019-04-07T04:42:10.341Z,-433.30
2019-04-07T04:43:10.383Z,-433.19
2019-04-07T04:44:10.300Z,-431.60
2019-04-07T04:45:10.698Z,-431.03
2019-04-07T04:46:12.162Z,-425.01
2019-04-07T04:47:12.273Z,-426.44
2019-04-07T04:48:11.969Z,-428.51
2019-04-07T04:49:12.497Z,-430.51
2019-04-07T04:50:12.836Z,-432.48
2019-04-07T04:51:13.075Z,-432.63
2019-04-07T04:52:13.605Z,-433.54
2019-04-07T04:53:13.570Z,-432.62
2019-04-07T04:54:14.485Z,-431.28
2019-04-07T04:55:14.293Z,-424.89
2019-04-07T04:56:14.685Z,-418.97
2019-04-07T04:57:15.046Z,-426.12
2019-04-07T04:58:15.408Z,-429.70
2019-04-07T04:59:15.717Z,-426.63
2019-04-07T05:00:16.083Z,-429.36
2019-04-07T05:01:16.447Z,-423.87
2019-04-07T05:02:17.080Z,-423.56
2019-04-07T05:03:17.988Z,-427.20
2019-04-07T05:04:17.738Z,-424.70
2019-04-07T05:05:18.156Z,-423.62
2019-04-07T05:06:18.352Z,-423.64
2019-04-07T05:07:18.967Z,-424.89
2019-04-07T05:08:18.983Z,-428.96
2019-04-07T05:09:20.033Z,-428.77
2019-04-07T05:10:19.719Z,-426.94
2019-04-07T05:11:20.079Z,-433.28
2019-04-07T05:12:20.931Z,-433.28
2019-04-07T05:13:21.371Z,-434.95
2019-04-07T05:14:21.979Z,-431.68
2019-04-07T05:15:21.533Z,-436.44
2019-04-07T05:16:21.887Z,-435.75
2019-04-07T05:17:22.228Z,-433.66
2019-04-07T05:18:22.703Z,-436.95
2019-04-07T05:19:23.684Z,-434.86
2019-04-07T05:20:23.950Z,-434.51
2019-04-07T05:21:23.991Z,-434.93
2019-04-07T05:22:24.130Z,-434.17
2019-04-07T05:23:24.387Z,-437.41
2019-04-07T05:24:24.783Z,-432.91
2019-04-07T05:25:25.123Z,-433.31
2019-04-07T05:26:25.587Z,-434.52
2019-04-07T05:27:25.827Z,-434.76
2019-04-07T05:28:26.619Z,-435.60
2019-04-07T05:29:26.522Z,-434.17
2019-04-07T05:30:27.030Z,-434.86
2019-04-07T05:31:27.263Z,-435.50
2019-04-07T05:32:27.625Z,-437.70
2019-04-07T05:33:27.999Z,-436.25
2019-04-07T05:34:28.349Z,-437.37
2019-04-07T05:35:28.703Z,-436.04
2019-04-07T05:36:29.074Z,-435.70
2019-04-07T05:37:29.554Z,-433.14
2019-04-07T05:38:30.246Z,-429.88
2019-04-07T05:39:30.858Z,-431.35
2019-04-07T05:40:31.047Z,-432.97
2019-04-07T05:41:31.221Z,-434.02
2019-04-07T05:42:31.227Z,-434.94
2019-04-07T05:43:31.608Z,-436.12
2019-04-07T05:44:32.238Z,-438.72
2019-04-07T05:45:33.572Z,-436.60
2019-04-07T05:46:33.509Z,-438.70
2019-04-07T05:47:33.133Z,-435.16
2019-04-07T05:48:33.756Z,-437.29
2019-04-07T05:49:33.747Z,-437.60
2019-04-07T05:50:34.883Z,-442.35
2019-04-07T05:51:34.488Z,-437.59
2019-04-07T05:52:37.838Z,-438.45
2019-04-07T05:53:35.212Z,-438.18
2019-04-07T05:54:36.142Z,-436.67
2019-04-07T05:55:36.079Z,-438.79
2019-04-07T05:56:36.827Z,-438.14
2019-04-07T05:57:36.610Z,-437.90
2019-04-07T05:58:38.373Z,-438.67
2019-04-07T05:59:37.644Z,-434.97
2019-04-07T06:00:38.397Z,-435.99
2019-04-07T06:01:38.105Z,-437.86
2019-04-07T06:02:38.434Z,-435.91
2019-04-07T06:03:41.204Z,-435.79
2019-04-07T06:04:39.408Z,-436.19
2019-04-07T06:05:40.005Z,-435.32
2019-04-07T06:06:41.527Z,-438.45
2019-04-07T06:07:40.245Z,-436.64
2019-04-07T06:08:41.101Z,-437.73
2019-04-07T06:09:41.445Z,-433.82
2019-04-07T06:10:41.376Z,-436.35
2019-04-07T06:11:41.749Z,-439.46
2019-04-07T06:12:44.941Z,-437.04
2019-04-07T06:13:43.881Z,-436.74
2019-04-07T06:14:45.887Z,-439.77
2019-04-07T06:15:43.129Z,-440.12
2019-04-07T06:16:43.584Z,-438.85
2019-04-07T06:17:43.852Z,-437.65
2019-04-07T06:18:44.474Z,-440.47
2019-04-07T06:19:44.633Z,-438.90
2019-04-07T06:20:46.374Z,-438.95
2019-04-07T06:21:46.880Z,-440.96
2019-04-07T06:22:46.828Z,-440.00
2019-04-07T06:23:46.058Z,-439.78
2019-04-07T06:24:47.109Z,-438.23
2019-04-07T06:25:46.803Z,-439.01
2019-04-07T06:26:48.123Z,-441.08
2019-04-07T06:27:47.758Z,-438.59
2019-04-07T06:28:51.161Z,-438.62
2019-04-07T06:29:48.880Z,-439.63
2019-04-07T06:30:48.696Z,-437.42
2019-04-07T06:31:49.494Z,-438.22
2019-04-07T06:32:49.327Z,-439.12
2019-04-07T06:33:49.871Z,-438.34
2019-04-07T06:34:50.679Z,-439.72
2019-04-07T06:35:53.104Z,-438.52
2019-04-07T06:36:53.594Z,-439.45
2019-04-07T06:37:51.954Z,-438.99
2019-04-07T06:38:52.614Z,-437.39
2019-04-07T06:39:52.473Z,-438.15
2019-04-07T06:40:54.227Z,-435.81
2019-04-07T06:41:52.575Z,-437.65
2019-04-07T06:42:53.316Z,-439.49
2019-04-07T06:43:54.202Z,-438.20
2019-04-07T06:44:55.382Z,-437.51
2019-04-07T06:45:54.882Z,-439.46
2019-04-07T06:46:57.664Z,-439.25
2019-04-07T06:47:55.205Z,-439.06
2019-04-07T06:48:55.152Z,-436.18
2019-04-07T06:49:55.450Z,-438.56
2019-04-07T06:50:58.913Z,-437.17
2019-04-07T06:51:56.171Z,-437.82
2019-04-07T06:52:56.641Z,-436.45
2019-04-07T06:53:56.966Z,-437.98
2019-04-07T06:54:57.233Z,-439.85
2019-04-07T06:55:59.448Z,-435.70
2019-04-07T06:56:57.959Z,-437.94
2019-04-07T06:57:58.325Z,-438.26
2019-04-07T06:58:59.162Z,-436.89
2019-04-07T06:59:59.019Z,-436.08
2019-04-07T07:01:02.155Z,-438.26
2019-04-07T07:01:59.863Z,-437.13
2019-04-07T07:03:02.917Z,-438.32
2019-04-07T07:04:00.484Z,-439.75
2019-04-07T07:05:00.835Z,-437.00
2019-04-07T07:06:01.333Z,-436.13
2019-04-07T07:07:02.331Z,-436.45
2019-04-07T07:08:02.002Z,-435.64
2019-04-07T07:09:02.941Z,-436.65
2019-04-07T07:10:03.269Z,-435.37
2019-04-07T07:11:03.088Z,-438.76
2019-04-07T07:12:03.950Z,-437.25
2019-04-07T07:13:07.599Z,-437.21
2019-04-07T07:14:05.064Z,-436.48
2019-04-07T07:15:04.628Z,-435.21
2019-04-07T07:16:07.960Z,-434.59
2019-04-07T07:17:06.324Z,-434.62
2019-04-07T07:18:05.632Z,-433.09
2019-04-07T07:19:06.351Z,-435.28
2019-04-07T07:20:06.737Z,-438.40
2019-04-07T07:21:06.874Z,-435.71
2019-04-07T07:22:10.039Z,-436.92
2019-04-07T07:23:09.912Z,-436.62
2019-04-07T07:24:07.710Z,-434.62
2019-04-07T07:25:10.245Z,-438.22
2019-04-07T07:26:09.086Z,-437.54
2019-04-07T07:27:10.313Z,-438.47
2019-04-07T07:28:11.436Z,-435.26
2019-04-07T07:29:09.499Z,-436.44
2019-04-07T07:30:10.594Z,-438.94
2019-04-07T07:31:10.239Z,-437.10
2019-04-07T07:32:10.571Z,-437.58
2019-04-07T07:33:11.168Z,-436.05
2019-04-07T07:34:11.815Z,-439.51
2019-04-07T07:35:13.659Z,-437.91
2019-04-07T07:36:12.389Z,-437.09
2019-04-07T07:37:12.667Z,-437.47
2019-04-07T07:38:12.788Z,-437.65
2019-04-07T07:39:13.879Z,-432.88
2019-04-07T07:40:15.449Z,-439.12
2019-04-07T07:41:14.085Z,-436.76
2019-04-07T07:42:14.737Z,-436.74
2019-04-07T07:43:14.797Z,-438.71
2019-04-07T07:44:15.543Z,-437.19
2019-04-07T07:45:15.559Z,-436.62
2019-04-07T07:46:17.849Z,-437.32
2019-04-07T07:47:17.618Z,-438.61
2019-04-07T07:48:16.412Z,-436.16
2019-04-07T07:49:16.846Z,-437.56
2019-04-07T07:50:17.845Z,-438.33
2019-04-07T07:51:17.543Z,-436.62
2019-04-07T07:52:20.439Z,-437.44
2019-04-07T07:53:19.170Z,-435.52
2019-04-07T07:54:18.510Z,-436.64
2019-04-07T07:55:19.683Z,-438.94
2019-04-07T07:56:19.286Z,-439.81
2019-04-07T07:57:21.915Z,-439.24
2019-04-07T07:58:20.351Z,-438.28
2019-04-07T07:59:20.424Z,-436.58
2019-04-07T08:00:21.022Z,-439.81
2019-04-07T08:01:21.121Z,-439.38
2019-04-07T08:02:21.916Z,-438.64
2019-04-07T08:03:22.903Z,-435.39
2019-04-07T08:04:24.897Z,-438.87
2019-04-07T08:05:22.810Z,-439.96
2019-04-07T08:06:22.862Z,-443.36
2019-04-07T08:07:23.632Z,-442.12
2019-04-07T08:08:23.586Z,-443.81
2019-04-07T08:09:25.885Z,-439.93
2019-04-07T08:10:25.077Z,-437.44
2019-04-07T08:11:25.031Z,-439.30
2019-04-07T08:12:25.499Z,-439.96
2019-04-07T08:13:25.813Z,-443.16
2019-04-07T08:14:26.021Z,-438.12
2019-04-07T08:15:29.182Z,-440.42
2019-04-07T08:16:30.331Z,-440.39
2019-04-07T08:17:27.083Z,-438.42
2019-04-07T08:18:27.191Z,-463.86
2019-04-07T08:19:29.379Z,-466.97
2019-04-07T08:20:28.535Z,-463.46
2019-04-07T08:21:29.089Z,-466.45
2019-04-07T08:22:32.502Z,-467.70
2019-04-07T08:23:30.724Z,-467.27
2019-04-07T08:24:29.447Z,-466.70
2019-04-07T08:25:30.248Z,-469.74
2019-04-07T08:26:30.115Z,-467.99
2019-04-07T08:27:31.967Z,-468.63
2019-04-07T08:28:33.486Z,-467.84
2019-04-07T08:29:31.166Z,-465.27
2019-04-07T08:30:31.785Z,-470.67
2019-04-07T08:31:32.628Z,-469.37
2019-04-07T08:32:33.187Z,-472.61
2019-04-07T08:33:33.184Z,-470.12
2019-04-07T08:34:33.102Z,-468.99
2019-04-07T08:35:35.679Z,-471.14
2019-04-07T08:36:34.773Z,-468.45
2019-04-07T08:37:34.182Z,-469.68
2019-04-07T08:38:34.431Z,-467.19
2019-04-07T08:39:35.480Z,-470.68
2019-04-07T08:40:36.472Z,-469.51
2019-04-07T08:41:39.162Z,-465.37
2019-04-07T08:42:36.942Z,-466.44
2019-04-07T08:43:36.275Z,-465.15
2019-04-07T08:44:36.733Z,-468.20
2019-04-07T08:45:37.111Z,-469.96
2019-04-07T08:46:40.124Z,-466.76
2019-04-07T08:47:38.093Z,-460.35
2019-04-07T08:48:38.743Z,-464.45
2019-04-07T08:49:38.359Z,-461.63
2019-04-07T08:50:38.710Z,-465.74
2019-04-07T08:51:39.421Z,-466.23
2019-04-07T08:52:41.935Z,-465.47
2019-04-07T08:53:43.449Z,-464.77
2019-04-07T08:54:40.182Z,-467.45
2019-04-07T08:55:40.634Z,-468.15
2019-04-07T08:56:40.937Z,-472.69
2019-04-07T08:57:41.352Z,-466.86
2019-04-07T08:58:42.475Z,-462.98
2019-04-07T08:59:43.032Z,-472.43
2019-04-07T09:00:42.675Z,-470.41
2019-04-07T09:01:43.439Z,-472.38
2019-04-07T09:02:43.770Z,-474.90
2019-04-07T09:03:43.903Z,-464.42
2019-04-07T09:04:44.371Z,-470.66
2019-04-07T09:05:44.441Z,-471.60
2019-04-07T09:06:44.944Z,-468.58
2019-04-07T09:07:44.858Z,-474.30
2019-04-07T09:08:46.105Z,-473.30
2019-04-07T09:09:47.411Z,-470.45
2019-04-07T09:10:49.053Z,-464.36
2019-04-07T09:11:46.985Z,-471.96
2019-04-07T09:12:46.673Z,-468.47
2019-04-07T09:13:47.573Z,-472.15
2019-04-07T09:14:47.392Z,-470.62
2019-04-07T09:15:48.839Z,-466.39
2019-04-07T09:16:51.825Z,-454.08
2019-04-07T09:17:48.691Z,-460.34
2019-04-07T09:18:54.322Z,-469.05
2019-04-07T09:19:50.840Z,-470.98
2019-04-07T09:20:49.576Z,-469.44
2019-04-07T09:21:51.640Z,-470.89
2019-04-07T09:22:52.384Z,-468.58
2019-04-07T09:23:50.742Z,-465.36
2019-04-07T09:24:50.988Z,-471.54
2019-04-07T09:25:51.362Z,-469.43
2019-04-07T09:26:52.381Z,-470.24
2019-04-07T09:27:52.274Z,-471.49
2019-04-07T09:28:53.980Z,-469.52
2019-04-07T09:29:53.408Z,-470.27
2019-04-07T09:30:53.653Z,-471.14
2019-04-07T09:31:54.072Z,-466.58
2019-04-07T09:32:54.581Z,-470.99
2019-04-07T09:33:55.004Z,-480.97
2019-04-07T09:34:56.078Z,-470.93
2019-04-07T09:35:56.680Z,-468.13
2019-04-07T09:36:55.670Z,-474.92
2019-04-07T09:37:55.951Z,-473.55
2019-04-07T09:38:57.996Z,-473.11
2019-04-07T09:40:00.793Z,-474.54
2019-04-07T09:40:58.409Z,-466.41
2019-04-07T09:41:57.264Z,-472.21
2019-04-07T09:42:59.264Z,-471.56
2019-04-07T09:44:01.049Z,-473.71
2019-04-07T09:44:58.574Z,-470.90
2019-04-07T09:45:59.395Z,-472.53
2019-04-07T09:46:59.594Z,-477.20
2019-04-07T09:47:59.856Z,-467.82
2019-04-07T09:48:59.942Z,-469.52
2019-04-07T09:50:00.479Z,-467.74
2019-04-07T09:51:03.994Z,-467.45
2019-04-07T09:52:02.506Z,-482.15
2019-04-07T09:53:01.125Z,-469.76
2019-04-07T09:54:01.501Z,-477.42
2019-04-07T09:55:01.944Z,-476.05
2019-04-07T09:56:02.730Z,-465.60
2019-04-07T09:57:05.662Z,-473.11
2019-04-07T09:58:02.919Z,-462.09
2019-04-07T09:59:03.579Z,-469.03
2019-04-07T10:00:03.690Z,-474.23
2019-04-07T10:01:06.122Z,-469.66
2019-04-07T10:02:05.889Z,-441.63
2019-04-07T10:03:07.805Z,-448.82
2019-04-07T10:04:07.081Z,-438.04
2019-04-07T10:05:05.466Z,-444.71
2019-04-07T10:06:09.807Z,-440.21
2019-04-07T10:07:09.087Z,-442.06
2019-04-07T10:08:07.308Z,-440.11
2019-04-07T10:09:06.900Z,-438.08
2019-04-07T10:10:12.441Z,-440.31
2019-04-07T10:11:08.661Z,-437.63
2019-04-07T10:12:08.192Z,-441.50
2019-04-07T10:13:08.353Z,-440.29
2019-04-07T10:14:08.717Z,-434.87
2019-04-07T10:15:11.601Z,-442.85
2019-04-07T10:16:10.656Z,-439.89
2019-04-07T10:17:10.725Z,-440.26
2019-04-07T10:18:10.223Z,-450.71
2019-04-07T10:19:10.954Z,-444.36
2019-04-07T10:20:11.223Z,-446.18
2019-04-07T10:21:11.250Z,-449.35
2019-04-07T10:22:12.338Z,-448.13
2019-04-07T10:23:11.972Z,-442.55
2019-04-07T10:24:13.009Z,-438.96
2019-04-07T10:25:12.702Z,-448.96
2019-04-07T10:26:13.103Z,-446.47
2019-04-07T10:27:13.472Z,-426.17
2019-04-07T10:28:13.890Z,-464.58
2019-04-07T10:29:14.135Z,-452.81
2019-04-07T10:30:14.666Z,-442.03
2019-04-07T10:31:18.356Z,-446.70
2019-04-07T10:32:15.246Z,-451.24
2019-04-07T10:33:15.749Z,-434.71
2019-04-07T10:34:16.194Z,-443.58
2019-04-07T10:35:16.803Z,-449.38
2019-04-07T10:36:16.710Z,-446.35
2019-04-07T10:37:17.023Z,-440.14
2019-04-07T10:38:17.402Z,-442.10
2019-04-07T10:39:18.607Z,-446.16
2019-04-07T10:40:20.928Z,-440.52
2019-04-07T10:41:18.483Z,-437.96
2019-04-07T10:42:19.113Z,-452.47
2019-04-07T10:43:19.610Z,-438.01
2019-04-07T10:44:19.615Z,-448.31
2019-04-07T10:45:20.659Z,-446.00
2019-04-07T10:46:20.373Z,-438.94
2019-04-07T10:47:21.193Z,-445.82
2019-04-07T10:48:21.012Z,-435.99
2019-04-07T10:49:21.373Z,-442.73
2019-04-07T10:50:22.160Z,-406.52
2019-04-07T10:51:22.954Z,-411.55
2019-04-07T10:52:22.468Z,-408.28
2019-04-07T10:53:22.912Z,-417.78
2019-04-07T10:54:23.397Z,-426.36
2019-04-07T10:55:24.155Z,-428.37
2019-04-07T10:56:24.264Z,-437.58
2019-04-07T10:57:24.250Z,-433.21
2019-04-07T10:58:24.807Z,-427.62
2019-04-07T10:59:25.603Z,-446.33
2019-04-07T11:00:25.815Z,-442.66
2019-04-07T11:01:25.775Z,-441.60
2019-04-07T11:02:26.860Z,-434.08
2019-04-07T11:03:26.445Z,-442.44
2019-04-07T11:04:27.326Z,-438.45
2019-04-07T11:05:27.911Z,-440.25
2019-04-07T11:06:28.309Z,-440.92
2019-04-07T11:07:28.201Z,-433.59
2019-04-07T11:08:28.737Z,-440.40
2019-04-07T11:09:28.680Z,-438.62
2019-04-07T11:10:34.482Z,-442.20
2019-04-07T11:11:30.383Z,-443.69
2019-04-07T11:12:30.330Z,-438.72
2019-04-07T11:13:30.780Z,-442.34
2019-04-07T11:14:30.400Z,-442.02
2019-04-07T11:15:30.781Z,-441.05
2019-04-07T11:16:31.289Z,-432.90
2019-04-07T11:17:31.605Z,-437.04
2019-04-07T11:18:32.504Z,-434.33
2019-04-07T11:19:32.287Z,-445.01
2019-04-07T11:20:32.567Z,-438.49
2019-04-07T11:21:33.755Z,-426.94
2019-04-07T11:22:36.014Z,-436.51
2019-04-07T11:23:33.622Z,-442.19
2019-04-07T11:24:35.072Z,-431.61
2019-04-07T11:25:34.683Z,-444.43
2019-04-07T11:26:35.280Z,-449.65
2019-04-07T11:27:35.399Z,-443.64
2019-04-07T11:28:35.444Z,-432.39
2019-04-07T11:29:37.633Z,-440.89
2019-04-07T11:30:36.182Z,-451.63
2019-04-07T11:31:36.913Z,-433.33
2019-04-07T11:32:36.960Z,-438.06
2019-04-07T11:33:37.980Z,-431.52
2019-04-07T11:34:37.686Z,-430.62
2019-04-07T11:35:37.961Z,-450.02
2019-04-07T11:36:38.551Z,-432.11
2019-04-07T11:37:38.712Z,-430.93
2019-04-07T11:38:39.079Z,-439.26
2019-04-07T11:39:39.389Z,-438.87
2019-04-07T11:40:45.780Z,-442.12
2019-04-07T11:41:41.310Z,-445.98
2019-04-07T11:42:41.540Z,-446.26
2019-04-07T11:43:40.919Z,-438.56
2019-04-07T11:44:41.244Z,-441.16
2019-04-07T11:45:52.867Z,-435.88
2019-04-07T11:46:43.182Z,-430.48
2019-04-07T11:47:42.734Z,-432.51
2019-04-07T11:48:43.235Z,-433.31
2019-04-07T11:49:44.637Z,-430.39
2019-04-07T11:50:43.423Z,-436.38
2019-04-07T11:51:44.252Z,-431.76
2019-04-07T11:52:44.122Z,-445.78
2019-04-07T11:53:44.479Z,-436.09
2019-04-07T11:54:44.972Z,-444.49
2019-04-07T11:55:45.423Z,-452.80
2019-04-07T11:56:46.025Z,-443.67
2019-04-07T11:57:45.940Z,-437.18
2019-04-07T11:58:46.380Z,-443.41
2019-04-07T11:59:46.614Z,-433.11
2019-04-07T12:00:47.352Z,-437.49
2019-04-07T12:01:47.955Z,-432.89
2019-04-07T12:02:49.246Z,-427.79
2019-04-07T12:03:48.107Z,-436.49
2019-04-07T12:04:48.892Z,-444.04
2019-04-07T12:05:49.527Z,-435.46
2019-04-07T12:06:49.796Z,-433.58
2019-04-07T12:07:52.955Z,-437.41
2019-04-07T12:08:51.122Z,-441.67
2019-04-07T12:09:50.967Z,-431.03